sensor_id;sensor_type;location;lat;lon;timestamp;P1;durP1;ratioP1;P2;durP2;ratioP2
7585;SDS011;12459;42.646;23.292;2023-03-22T00:08:47;10.93;;;10.33;;
7585;SDS011;12459;42.646;23.292;2023-03-22T00:23:51;11.03;;;10.43;;
7585;SDS011;12459;42.646;23.292;2023-03-22T00:38:53;8.03;;;7.53;;
7585;SDS011;12459;42.646;23.292;2023-03-22T00:53:54;10.90;;;10.30;;
7585;SDS011;12459;42.646;23.292;2023-03-22T01:08:56;11.33;;;10.73;;
7585;SDS011;12459;42.646;23.292;2023-03-22T01:23:58;10.50;;;9.90;;
7585;SDS011;12459;42.646;23.292;2023-03-22T01:39:00;8.67;;;8.17;;
7585;SDS011;12459;42.646;23.292;2023-03-22T01:54:02;9.70;;;9.20;;
7585;SDS011;12459;42.646;23.292;2023-03-22T02:09:08;8.70;;;8.20;;
7585;SDS011;12459;42.646;23.292;2023-03-22T02:39:31;9.23;;;8.73;;
7585;SDS011;12459;42.646;23.292;2023-03-22T03:10:04;9.33;;;8.83;;
7585;SDS011;12459;42.646;23.292;2023-03-22T03:25:17;11.37;;;10.77;;
7585;SDS011;12459;42.646;23.292;2023-03-22T03:40:44;9.90;;;9.33;;
7585;SDS011;12459;42.646;23.292;2023-03-22T03:55:49;10.10;;;9.53;;
7585;SDS011;12459;42.646;23.292;2023-03-22T04:10:51;9.60;;;9.10;;
7585;SDS011;12459;42.646;23.292;2023-03-22T04:25:53;8.37;;;7.87;;
7585;SDS011;12459;42.646;23.292;2023-03-22T04:40:55;11.40;;;10.80;;
7585;SDS011;12459;42.646;23.292;2023-03-22T04:55:58;9.53;;;9.03;;
7585;SDS011;12459;42.646;23.292;2023-03-22T05:11:04;8.30;;;7.80;;
7585;SDS011;12459;42.646;23.292;2023-03-22T05:26:09;8.80;;;8.30;;
7585;SDS011;12459;42.646;23.292;2023-03-22T05:41:15;9.63;;;9.13;;
7585;SDS011;12459;42.646;23.292;2023-03-22T05:56:17;9.07;;;8.57;;
7585;SDS011;12459;42.646;23.292;2023-03-22T06:11:24;8.90;;;8.40;;
7585;SDS011;12459;42.646;23.292;2023-03-22T06:26:26;7.77;;;7.27;;
7585;SDS011;12459;42.646;23.292;2023-03-22T06:41:27;8.43;;;7.93;;
7585;SDS011;12459;42.646;23.292;2023-03-22T06:56:29;6.93;;;6.53;;
7585;SDS011;12459;42.646;23.292;2023-03-22T07:11:31;8.43;;;7.93;;
7585;SDS011;12459;42.646;23.292;2023-03-22T07:26:33;7.07;;;6.67;;
7585;SDS011;12459;42.646;23.292;2023-03-22T07:41:34;11.20;;;10.60;;
7585;SDS011;12459;42.646;23.292;2023-03-22T07:56:36;8.03;;;7.57;;
7585;SDS011;12459;42.646;23.292;2023-03-22T08:11:38;10.67;;;10.07;;
7585;SDS011;12459;42.646;23.292;2023-03-22T08:26:39;10.93;;;10.33;;
7585;SDS011;12459;42.646;23.292;2023-03-22T08:41:41;10.30;;;9.70;;
7585;SDS011;12459;42.646;23.292;2023-03-22T08:56:43;11.80;;;11.20;;
7585;SDS011;12459;42.646;23.292;2023-03-22T09:11:44;11.47;;;10.87;;
7585;SDS011;12459;42.646;23.292;2023-03-22T09:26:47;12.30;;;11.67;;
7585;SDS011;12459;42.646;23.292;2023-03-22T09:41:56;11.40;;;10.80;;
7585;SDS011;12459;42.646;23.292;2023-03-22T10:12:30;9.40;;;8.90;;
7585;SDS011;12459;42.646;23.292;2023-03-22T10:27:42;10.90;;;10.30;;
7585;SDS011;12459;42.646;23.292;2023-03-22T10:42:56;12.10;;;11.50;;
7585;SDS011;12459;42.646;23.292;2023-03-22T10:58:17;11.13;;;10.53;;
7585;SDS011;12459;42.646;23.292;2023-03-22T11:13:20;12.40;;;11.73;;
7585;SDS011;12459;42.646;23.292;2023-03-22T11:28:31;13.13;;;12.43;;
7585;SDS011;12459;42.646;23.292;2023-03-22T11:43:37;11.37;;;10.77;;
7585;SDS011;12459;42.646;23.292;2023-03-22T12:13:59;11.63;;;11.03;;
7585;SDS011;12459;42.646;23.292;2023-03-22T12:29:13;12.13;;;11.53;;
7585;SDS011;12459;42.646;23.292;2023-03-22T12:59:28;12.27;;;11.60;;
7585;SDS011;12459;42.646;23.292;2023-03-22T13:30:04;8.60;;;8.10;;
7585;SDS011;12459;42.646;23.292;2023-03-22T13:45:28;11.40;;;10.80;;
7585;SDS011;12459;42.646;23.292;2023-03-22T14:00:33;12.73;;;12.03;;
7585;SDS011;12459;42.646;23.292;2023-03-22T14:15:39;12.07;;;11.43;;
7585;SDS011;12459;42.646;23.292;2023-03-22T14:30:45;11.70;;;11.10;;
7585;SDS011;12459;42.646;23.292;2023-03-22T14:45:46;12.40;;;11.73;;
7585;SDS011;12459;42.646;23.292;2023-03-22T15:00:48;14.13;;;13.43;;
7585;SDS011;12459;42.646;23.292;2023-03-22T15:15:49;13.87;;;13.17;;
7585;SDS011;12459;42.646;23.292;2023-03-22T15:30:51;15.30;;;14.50;;
7585;SDS011;12459;42.646;23.292;2023-03-22T15:46:10;12.20;;;11.53;;
7585;SDS011;12459;42.646;23.292;2023-03-22T16:01:14;13.37;;;12.67;;
7585;SDS011;12459;42.646;23.292;2023-03-22T16:16:19;11.90;;;11.30;;
7585;SDS011;12459;42.646;23.292;2023-03-22T16:31:21;11.73;;;11.13;;
7585;SDS011;12459;42.646;23.292;2023-03-22T16:46:23;12.73;;;12.03;;
7585;SDS011;12459;42.646;23.292;2023-03-22T17:01:24;10.80;;;10.20;;
7585;SDS011;12459;42.646;23.292;2023-03-22T17:16:25;10.77;;;10.18;;
7585;SDS011;12459;42.646;23.292;2023-03-22T17:31:26;7.40;;;7.00;;
7585;SDS011;12459;42.646;23.292;2023-03-22T17:46:27;10.93;;;10.33;;
7585;SDS011;12459;42.646;23.292;2023-03-22T18:01:28;10.43;;;9.82;;
7585;SDS011;12459;42.646;23.292;2023-03-22T18:16:29;12.13;;;11.52;;
7585;SDS011;12459;42.646;23.292;2023-03-22T18:31:29;9.15;;;8.65;;
7585;SDS011;12459;42.646;23.292;2023-03-22T18:46:30;11.10;;;10.50;;
7585;SDS011;12459;42.646;23.292;2023-03-22T19:01:30;10.77;;;10.18;;
7585;SDS011;12459;42.646;23.292;2023-03-22T19:16:32;7.30;;;6.90;;
7585;SDS011;12459;42.646;23.292;2023-03-22T19:31:32;8.00;;;7.50;;
7585;SDS011;12459;42.646;23.292;2023-03-22T19:46:33;7.97;;;7.47;;
7585;SDS011;12459;42.646;23.292;2023-03-22T20:01:40;6.90;;;6.50;;
7585;SDS011;12459;42.646;23.292;2023-03-22T20:16:45;8.97;;;8.47;;
7585;SDS011;12459;42.646;23.292;2023-03-22T20:46:53;8.73;;;8.23;;
7585;SDS011;12459;42.646;23.292;2023-03-22T21:02:04;8.63;;;8.13;;
7585;SDS011;12459;42.646;23.292;2023-03-22T21:17:05;7.70;;;7.30;;
7585;SDS011;12459;42.646;23.292;2023-03-22T21:32:06;6.80;;;6.40;;
7585;SDS011;12459;42.646;23.292;2023-03-22T21:47:07;7.23;;;6.83;;
7585;SDS011;12459;42.646;23.292;2023-03-22T22:02:09;6.83;;;6.43;;
7585;SDS011;12459;42.646;23.292;2023-03-22T22:17:14;6.10;;;5.70;;
7585;SDS011;12459;42.646;23.292;2023-03-22T22:32:15;6.20;;;5.80;;
7585;SDS011;12459;42.646;23.292;2023-03-22T22:47:15;6.10;;;5.70;;
7585;SDS011;12459;42.646;23.292;2023-03-22T23:02:16;7.32;;;6.93;;
7585;SDS011;12459;42.646;23.292;2023-03-22T23:17:17;5.50;;;5.10;;
7585;SDS011;12459;42.646;23.292;2023-03-22T23:32:17;5.57;;;5.18;;
7585;SDS011;12459;42.646;23.292;2023-03-22T23:47:19;7.32;;;6.93;;
